Time;durP1;ratioP1;P1;durP2;ratioP2;P2;SDS_P1;SDS_P2;PMS_P1;PMS_P2;Temp;Humidity;BMP_temperature;BMP_pressure;BME280_temperature;BME280_humidity;BME280_pressure;Samples;Min_cycle;Max_cycle;Signal;HPM_P1;HPM_P2
2022/08/13 00:01:44;;;;;;;0.90;0.80;;;26.60;40.30;25.40;101427.00;;;;5094163;28;20040;-73
2022/08/13 00:04:30;;;;;;;2.45;0.75;;;26.60;40.20;25.40;101429.00;;;;5092154;28;20047;-73
2022/08/13 00:07:16;;;;;;;2.60;0.80;;;26.60;40.20;25.40;101430.00;;;;5092856;28;20367;-73
2022/08/13 00:10:05;;;;;;;1.08;0.80;;;26.60;40.20;25.40;101433.00;;;;5093136;28;20040;-73
2022/08/13 00:12:57;;;;;;;0.88;0.70;;;26.60;40.10;25.40;101433.00;;;;5082939;28;20056;-73
2022/08/13 00:15:43;;;;;;;0.85;0.60;;;26.60;40.10;25.40;101428.00;;;;5096072;28;20037;-73
2022/08/13 00:18:29;;;;;;;2.33;0.60;;;26.60;40.10;25.40;101434.00;;;;5076142;28;20044;-73
2022/08/13 00:21:15;;;;;;;0.80;0.60;;;26.60;40.80;25.40;101431.00;;;;5085713;28;20046;-73
2022/08/13 00:24:02;;;;;;;1.58;0.73;;;26.60;40.10;25.40;101433.00;;;;5096345;28;20043;-73
2022/08/13 00:26:49;;;;;;;2.33;0.60;;;26.60;40.10;25.40;101431.00;;;;5075451;28;20040;-73
2022/08/13 00:29:38;;;;;;;1.83;0.50;;;26.60;40.00;25.40;101435.00;;;;5080052;28;20040;-73
2022/08/13 00:32:30;;;;;;;1.08;0.75;;;26.60;40.00;25.40;101434.00;;;;5089989;28;20035;-73
2022/08/13 00:35:16;;;;;;;1.77;0.80;;;26.60;40.00;25.40;101435.00;;;;5079468;28;20494;-72
2022/08/13 00:38:05;;;;;;;1.75;0.60;;;26.60;40.00;25.40;101431.00;;;;5088077;28;20031;-73
2022/08/13 00:40:59;;;;;;;1.85;0.40;;;26.60;40.00;25.40;101435.00;;;;5073770;28;20044;-73
2022/08/13 00:43:45;;;;;;;0.85;0.63;;;26.60;40.00;25.40;101429.00;;;;5095324;28;20074;-73
2022/08/13 00:46:32;;;;;;;0.80;0.50;;;26.60;40.00;25.40;101435.00;;;;5093162;28;20036;-72
2022/08/13 00:49:18;;;;;;;2.72;1.30;;;26.60;39.90;25.40;101429.00;;;;5078780;28;20540;-72
2022/08/13 00:52:07;;;;;;;2.05;0.80;;;26.60;39.90;25.40;101427.00;;;;5091856;28;20044;-73
2022/08/13 00:54:53;;;;;;;4.20;0.70;;;26.60;40.00;25.40;101426.00;;;;5075441;28;20040;-72
2022/08/13 00:57:39;;;;;;;1.00;0.63;;;26.60;40.10;25.40;101425.00;;;;5078042;28;20044;-73
2022/08/13 01:00:26;;;;;;;1.52;0.70;;;26.60;40.00;25.40;101427.00;;;;5088804;28;20162;-73
2022/08/13 01:03:12;;;;;;;0.75;0.63;;;26.60;40.00;25.40;101419.00;;;;5076472;28;20044;-73
2022/08/13 01:06:01;;;;;;;1.95;0.50;;;26.60;40.10;25.40;101422.00;;;;5076553;28;20098;-73
2022/08/13 01:08:50;;;;;;;2.75;0.70;;;26.60;40.10;25.40;101417.00;;;;5077078;28;20043;-72
2022/08/13 01:11:36;;;;;;;2.28;0.50;;;26.60;40.10;25.40;101417.00;;;;5068481;28;20028;-72
2022/08/13 01:14:24;;;;;;;0.65;0.50;;;26.60;40.10;25.40;101419.00;;;;5069280;28;20052;-72
2022/08/13 01:17:12;;;;;;;1.45;0.60;;;26.50;40.10;25.40;101414.00;;;;5078185;28;20126;-72
2022/08/13 01:19:58;;;;;;;1.95;0.70;;;26.50;40.10;25.40;101411.00;;;;5074043;28;20036;-72
2022/08/13 01:22:44;;;;;;;0.68;0.60;;;26.60;40.10;25.40;101416.00;;;;5074104;28;20106;-72
2022/08/13 01:25:31;;;;;;;1.70;0.68;;;26.60;40.10;25.40;101409.00;;;;5079732;28;20083;-73
2022/08/13 01:28:19;;;;;;;1.52;0.55;;;26.50;40.10;25.40;101411.00;;;;5052864;28;20044;-73
2022/08/13 01:31:06;;;;;;;1.48;0.88;;;26.60;40.10;25.40;101411.00;;;;5092372;28;20504;-73
2022/08/13 01:33:59;;;;;;;1.92;0.70;;;26.60;40.10;25.40;101414.00;;;;5076853;28;20035;-72
2022/08/13 01:36:49;;;;;;;0.50;0.50;;;26.60;40.20;25.40;101419.00;;;;5090319;28;20046;-72
2022/08/13 01:39:35;;;;;;;2.72;0.60;;;26.60;40.20;25.40;101416.00;;;;5064855;28;20097;-73
2022/08/13 01:42:21;;;;;;;1.85;0.47;;;26.60;40.20;25.40;101406.00;;;;5091585;28;20049;-73
2022/08/13 01:45:09;;;;;;;1.02;0.57;;;26.60;40.20;25.40;101407.00;;;;5074626;28;20052;-73
2022/08/13 01:51:03;;;;;;;1.83;0.73;;;26.50;40.10;25.40;101418.00;;;;5092375;28;20047;-72
2022/08/13 01:53:52;;;;;;;0.70;0.60;;;26.60;40.20;25.40;101409.00;;;;5082130;28;20040;-73
2022/08/13 01:56:38;;;;;;;0.80;0.47;;;26.50;40.20;25.40;101410.00;;;;5077983;28;20498;-73
2022/08/13 01:59:24;;;;;;;1.13;0.70;;;26.50;40.10;25.40;101413.00;;;;5063509;28;20039;-73
2022/08/13 02:02:11;;;;;;;2.58;0.65;;;26.50;40.10;25.40;101414.00;;;;5093125;28;20512;-73
2022/08/13 02:04:57;;;;;;;1.27;0.60;;;26.60;40.10;25.40;101410.00;;;;5056280;28;20040;-73
2022/08/13 02:07:43;;;;;;;1.98;0.70;;;26.50;40.00;25.40;101417.00;;;;5080296;28;20474;-73
2022/08/13 02:10:29;;;;;;;0.50;0.50;;;26.50;40.00;25.40;101412.00;;;;5086163;28;20096;-73
2022/08/13 02:13:19;;;;;;;0.75;0.60;;;26.50;39.90;25.40;101412.00;;;;5088841;28;20409;-73
2022/08/13 02:16:05;;;;;;;2.10;0.60;;;26.50;39.90;25.40;101413.00;;;;5088232;28;20036;-73
2022/08/13 02:18:52;;;;;;;5.78;0.80;;;26.50;39.80;25.30;101404.00;;;;5088453;28;20165;-72
2022/08/13 02:21:44;;;;;;;3.13;0.60;;;26.50;39.80;25.30;101405.00;;;;5066334;28;20032;-73
2022/08/13 02:24:30;;;;;;;1.58;0.50;;;26.50;39.90;25.30;101412.00;;;;5074541;28;20044;-73
2022/08/13 02:27:20;;;;;;;1.88;0.70;;;26.50;39.90;25.40;101416.00;;;;5073489;28;20088;-73
2022/08/13 02:30:10;;;;;;;1.30;0.50;;;26.50;39.90;25.30;101414.00;;;;5070542;28;20036;-73
2022/08/13 02:33:00;;;;;;;0.60;0.55;;;26.50;39.80;25.30;101416.00;;;;5090390;28;20052;-73
2022/08/13 02:35:46;;;;;;;0.70;0.60;;;26.50;39.90;25.30;101417.00;;;;5087519;28;20493;-73
2022/08/13 02:38:32;;;;;;;0.52;0.50;;;26.50;39.90;25.30;101411.00;;;;5075334;28;20035;-73
2022/08/13 02:44:25;;;;;;;2.08;0.60;;;26.50;39.80;25.30;101413.00;;;;5079352;28;20040;-73
2022/08/13 02:47:13;;;;;;;1.45;0.60;;;26.50;39.90;25.30;101412.00;;;;5074873;28;20044;-73
2022/08/13 02:49:59;;;;;;;0.85;0.50;;;26.50;39.90;25.30;101412.00;;;;5088065;28;20477;-73
2022/08/13 02:52:45;;;;;;;1.85;0.80;;;26.50;40.00;25.30;101414.00;;;;5093282;28;20416;-73
2022/08/13 02:55:32;;;;;;;1.88;0.50;;;26.50;40.00;25.30;101411.00;;;;5075870;28;20448;-72
2022/08/13 02:58:18;;;;;;;1.35;0.40;;;26.50;40.10;25.30;101409.00;;;;5086105;28;20052;-73
2022/08/13 03:01:04;;;;;;;2.85;0.70;;;26.50;40.00;25.30;101411.00;;;;5073820;28;20507;-73
2022/08/13 03:03:51;;;;;;;1.30;0.60;;;26.50;40.00;25.30;101411.00;;;;5090754;28;20031;-72
2022/08/13 03:06:37;;;;;;;1.05;0.63;;;26.50;40.10;25.30;101408.00;;;;5085468;28;20446;-72
2022/08/13 03:09:23;;;;;;;1.42;0.60;;;26.40;40.00;25.30;101413.00;;;;5096447;28;20039;-72
2022/08/13 03:12:10;;;;;;;1.17;0.75;;;26.30;39.90;25.30;101418.00;;;;5083058;28;20405;-72
2022/08/13 03:14:56;;;;;;;1.23;0.50;;;26.40;40.00;25.30;101412.00;;;;5074486;28;20029;-72
2022/08/13 03:17:43;;;;;;;1.33;0.80;;;26.40;40.00;25.30;101417.00;;;;5077497;28;20033;-72
2022/08/13 03:20:30;;;;;;;0.77;0.65;;;26.40;40.10;25.30;101425.00;;;;5086161;28;20044;-72
2022/08/13 03:23:16;;;;;;;1.73;0.70;;;26.40;40.10;25.30;101428.00;;;;5089561;28;20374;-72
2022/08/13 03:26:02;;;;;;;1.23;0.60;;;26.40;40.40;25.30;101429.00;;;;5059252;28;20458;-72
2022/08/13 03:28:51;;;;;;;0.93;0.77;;;26.30;40.20;25.20;101424.00;;;;5086926;28;20085;-73
2022/08/13 03:31:38;;;;;;;1.45;0.45;;;26.30;40.50;25.30;101424.00;;;;5075695;28;20036;-72
2022/08/13 03:34:24;;;;;;;2.47;0.80;;;26.20;40.30;25.20;101419.00;;;;5080429;28;20067;-73
2022/08/13 03:37:10;;;;;;;0.60;0.60;;;26.30;40.40;25.20;101415.00;;;;5082324;28;20058;-73
2022/08/13 03:39:56;;;;;;;0.70;0.70;;;26.30;40.30;25.20;101419.00;;;;5074093;28;20040;-73
2022/08/13 03:42:44;;;;;;;2.00;0.77;;;26.30;40.30;25.20;101427.00;;;;5091679;28;20215;-73
2022/08/13 03:45:31;;;;;;;1.20;0.57;;;26.20;40.30;25.20;101422.00;;;;5092584;28;20700;-73
2022/08/13 03:48:17;;;;;;;0.80;0.77;;;26.20;40.30;25.20;101417.00;;;;5084786;28;20098;-72
2022/08/13 03:51:04;;;;;;;1.83;0.55;;;26.20;40.30;25.20;101423.00;;;;5058845;28;20273;-72
2022/08/13 03:53:59;;;;;;;3.08;0.60;;;26.20;40.40;25.20;101421.00;;;;5093078;28;20062;-73
2022/08/13 03:56:46;;;;;;;4.00;0.82;;;26.20;40.40;25.20;101421.00;;;;5077213;28;20101;-73
2022/08/13 03:59:33;;;;;;;0.75;0.75;;;26.20;40.50;25.20;101419.00;;;;5098109;28;20039;-72
2022/08/13 04:02:19;;;;;;;1.83;0.60;;;26.20;40.50;25.20;101420.00;;;;5085749;28;20041;-72
2022/08/13 04:05:09;;;;;;;0.88;0.50;;;26.10;40.60;25.20;101421.00;;;;5092496;28;20293;-72
2022/08/13 04:07:55;;;;;;;2.17;0.73;;;26.10;40.60;25.20;101421.00;;;;5089372;28;20036;-72
2022/08/13 04:10:42;;;;;;;0.63;0.60;;;26.10;40.60;25.20;101419.00;;;;5089194;28;20481;-73
2022/08/13 04:13:29;;;;;;;1.02;0.60;;;26.00;40.60;25.10;101419.00;;;;5072055;28;20127;-73
2022/08/13 04:16:21;;;;;;;1.75;0.70;;;26.10;40.60;25.10;101412.00;;;;5078558;28;20378;-72
2022/08/13 04:19:07;;;;;;;1.10;0.80;;;26.10;40.70;25.10;101412.00;;;;5076260;28;20111;-73
2022/08/13 04:21:54;;;;;;;0.90;0.60;;;26.10;40.70;25.10;101417.00;;;;5053416;28;20094;-72
2022/08/13 04:24:40;;;;;;;0.65;0.60;;;26.00;40.70;25.10;101417.00;;;;5093824;28;20048;-73
2022/08/13 04:27:26;;;;;;;4.32;0.90;;;25.90;40.70;25.10;101427.00;;;;5087820;28;20052;-72
2022/08/13 04:30:14;;;;;;;1.80;0.70;;;26.00;40.80;25.10;101413.00;;;;5077038;28;20040;-73
2022/08/13 04:33:01;;;;;;;3.13;0.90;;;25.90;40.80;25.10;101416.00;;;;5077643;28;20491;-72
2022/08/13 04:35:47;;;;;;;4.97;0.83;;;25.90;40.70;25.10;101414.00;;;;5085712;28;20027;-72
2022/08/13 04:38:33;;;;;;;4.30;0.85;;;25.90;40.80;25.10;101419.00;;;;5085764;28;20040;-72
2022/08/13 04:41:21;;;;;;;2.70;0.90;;;25.90;40.80;25.10;101418.00;;;;5076199;28;20040;-73
2022/08/13 04:44:07;;;;;;;;;;;25.90;40.90;25.00;101414.00;;;;5093486;28;20039;-73
2022/08/13 04:46:55;;;;;;;2.33;0.80;;;25.90;40.80;25.00;101416.00;;;;5088680;28;19957;-73
2022/08/13 04:49:41;;;;;;;2.08;0.60;;;25.90;41.00;25.00;101415.00;;;;5096826;28;20112;-72
2022/08/13 04:52:27;;;;;;;4.30;0.98;;;25.90;41.00;25.00;101414.00;;;;5084265;28;20645;-72
2022/08/13 04:55:13;;;;;;;2.47;0.60;;;25.90;41.00;25.00;101411.00;;;;5087851;28;20062;-72
2022/08/13 04:57:59;;;;;;;1.10;0.60;;;25.80;40.90;25.00;101400.00;;;;5091413;28;20032;-73
2022/08/13 05:00:45;;;;;;;3.30;1.02;;;25.90;41.00;25.00;101414.00;;;;5095204;28;20043;-72
2022/08/13 05:03:32;;;;;;;2.47;0.75;;;25.80;40.90;25.00;101415.00;;;;5095062;28;20040;-72
2022/08/13 05:06:20;;;;;;;1.38;0.90;;;25.80;41.10;25.00;101411.00;;;;5079925;28;20085;-73
2022/08/13 05:09:06;;;;;;;3.13;0.90;;;25.80;41.20;25.00;101416.00;;;;5088874;28;20105;-73
2022/08/13 05:11:55;;;;;;;9.23;1.17;;;25.80;41.10;25.00;101414.00;;;;5088164;28;20043;-72
2022/08/13 05:14:41;;;;;;;0.80;0.65;;;25.80;41.30;25.00;101418.00;;;;5100883;28;20117;-72
2022/08/13 05:17:30;;;;;;;3.35;1.05;;;25.80;41.30;25.00;101418.00;;;;5080981;28;20505;-72
2022/08/13 05:20:16;;;;;;;3.42;1.00;;;25.80;41.40;25.00;101418.00;;;;5091157;28;20058;-73
2022/08/13 05:23:07;;;;;;;3.03;0.70;;;25.80;41.30;25.00;101418.00;;;;5071119;28;20032;-72
2022/08/13 05:25:53;;;;;;;8.00;0.95;;;25.80;41.30;25.00;101422.00;;;;5079381;28;20044;-72
2022/08/13 05:28:40;;;;;;;0.60;0.60;;;25.80;41.40;25.00;101426.00;;;;5076469;28;20427;-72
2022/08/13 05:31:26;;;;;;;4.00;0.85;;;25.80;41.60;25.00;101431.00;;;;5089337;28;20090;-73
2022/08/13 05:34:13;;;;;;;2.10;1.08;;;25.70;41.50;25.00;101428.00;;;;5090050;28;20098;-72
2022/08/13 05:36:59;;;;;;;1.95;0.85;;;25.80;41.50;25.00;101425.00;;;;5088507;28;20481;-73
2022/08/13 05:39:45;;;;;;;3.45;0.80;;;25.80;41.50;25.00;101422.00;;;;5097549;28;20089;-73
2022/08/13 05:42:34;;;;;;;2.55;1.00;;;25.80;41.60;25.00;101424.00;;;;5062665;28;20067;-73
2022/08/13 05:45:21;;;;;;;0.88;0.70;;;25.80;41.60;25.00;101421.00;;;;5060591;28;20045;-72
2022/08/13 05:48:07;;;;;;;0.68;0.68;;;25.80;41.60;25.00;101420.00;;;;5088318;28;20120;-73
2022/08/13 05:50:55;;;;;;;2.78;0.70;;;25.80;41.60;25.00;101411.00;;;;5099091;28;20039;-73
2022/08/13 05:53:41;;;;;;;1.02;0.93;;;25.80;41.60;25.00;101420.00;;;;5076238;28;20052;-72
2022/08/13 05:56:28;;;;;;;3.92;0.90;;;25.90;41.70;25.00;101407.00;;;;5097128;28;20043;-73
2022/08/13 06:05:23;;;;;;;0.85;0.63;;;25.90;41.80;25.00;101413.00;;;;5077532;28;20055;-73
2022/08/13 06:08:09;;;;;;;2.75;0.77;;;25.90;41.80;25.00;101417.00;;;;5073046;28;20415;-72
2022/08/13 06:11:07;;;;;;;1.35;0.80;;;25.90;41.80;25.00;101421.00;;;;5084819;28;20050;-73
2022/08/13 06:13:54;;;;;;;1.60;1.05;;;25.90;41.80;25.00;101420.00;;;;5081036;28;20500;-72
2022/08/13 06:16:40;;;;;;;1.23;0.67;;;25.90;41.70;25.00;101421.00;;;;5078052;28;20039;-72
2022/08/13 06:19:26;;;;;;;2.13;0.70;;;25.90;41.70;25.00;101421.00;;;;5072876;28;20443;-72
2022/08/13 06:22:13;;;;;;;3.65;1.02;;;26.00;41.80;25.00;101418.00;;;;5056982;28;20396;-73
2022/08/13 06:25:02;;;;;;;1.17;0.88;;;26.00;41.80;25.00;101423.00;;;;5068773;28;20036;-74
2022/08/13 06:27:48;;;;;;;1.17;0.70;;;26.00;41.80;25.00;101423.00;;;;5066206;28;20040;-75
2022/08/13 06:30:36;;;;;;;1.85;0.70;;;26.00;41.80;25.00;101423.00;;;;5084556;28;20447;-75
2022/08/13 06:33:22;;;;;;;0.90;0.70;;;26.10;41.90;25.10;101425.00;;;;5060327;28;20402;-74
2022/08/13 06:36:10;;;;;;;0.77;0.73;;;26.00;41.80;25.10;101424.00;;;;5079642;28;20040;-76
2022/08/13 06:39:00;;;;;;;0.82;0.75;;;26.10;41.80;25.10;101430.00;;;;5072842;28;20389;-75
2022/08/13 06:41:46;;;;;;;1.17;0.80;;;26.00;41.70;25.10;101425.00;;;;5061913;28;20040;-76
2022/08/13 06:44:33;;;;;;;0.93;0.63;;;26.00;41.60;25.10;101421.00;;;;5077014;28;20422;-75
2022/08/13 06:47:19;;;;;;;1.10;0.65;;;26.10;41.60;25.10;101425.00;;;;5056899;28;20123;-75
2022/08/13 06:50:10;;;;;;;1.80;0.77;;;26.10;41.60;25.10;101427.00;;;;5056528;28;20039;-76
2022/08/13 06:52:56;;;;;;;2.92;0.90;;;26.10;41.60;25.10;101419.00;;;;5070358;28;20397;-75
2022/08/13 06:55:42;;;;;;;0.50;0.50;;;26.10;41.60;25.10;101426.00;;;;5073550;28;20165;-75
2022/08/13 06:58:28;;;;;;;0.70;0.60;;;26.10;41.60;25.10;101432.00;;;;5070682;28;20044;-75
2022/08/13 07:01:24;;;;;;;0.90;0.77;;;26.10;41.60;25.10;101437.00;;;;5054238;28;20047;-75
2022/08/13 07:04:13;;;;;;;0.70;0.70;;;26.10;41.60;25.10;101425.00;;;;5086042;28;20931;-75
2022/08/13 07:06:59;;;;;;;4.70;0.80;;;26.10;41.50;25.10;101438.00;;;;5055971;28;20136;-76
2022/08/13 07:09:45;;;;;;;1.13;0.75;;;26.20;41.70;25.10;101438.00;;;;5073835;28;22240;-76
2022/08/13 07:12:32;;;;;;;1.92;0.70;;;26.20;41.70;25.10;101439.00;;;;5054665;28;20109;-75
2022/08/13 07:15:18;;;;;;;0.73;0.65;;;26.10;41.60;25.10;101438.00;;;;5069497;28;20080;-74
2022/08/13 07:18:06;;;;;;;1.02;0.70;;;26.20;41.70;25.10;101440.00;;;;5070322;28;20060;-74
2022/08/13 07:20:52;;;;;;;1.45;1.00;;;26.20;41.70;25.10;101442.00;;;;5069247;28;20089;-74
2022/08/13 07:23:39;;;;;;;7.38;1.50;;;26.20;41.60;25.10;101443.00;;;;5083762;28;20376;-75
2022/08/13 07:26:29;;;;;;;10.43;1.10;;;26.20;41.80;25.10;101442.00;;;;5058322;28;20043;-74
2022/08/13 07:29:18;;;;;;;3.60;1.15;;;26.20;41.80;25.10;101444.00;;;;5085015;28;20444;-77
2022/08/13 07:32:06;;;;;;;7.13;1.55;;;26.20;41.70;25.10;101437.00;;;;5046882;28;20127;-77
2022/08/13 07:34:52;;;;;;;6.40;1.00;;;26.20;41.70;25.10;101433.00;;;;5073130;28;20064;-77
2022/08/13 07:37:41;;;;;;;15.77;1.77;;;26.20;41.70;25.10;101445.00;;;;5071229;28;20593;-77
2022/08/13 07:40:27;;;;;;;6.82;1.20;;;26.20;41.70;25.10;101442.00;;;;5068904;28;20050;-76
2022/08/13 07:43:13;;;;;;;30.35;4.05;;;26.20;41.80;25.10;101448.00;;;;5068912;28;20051;-77
2022/08/13 07:46:10;;;;;;;27.45;3.88;;;26.20;41.90;25.10;101443.00;;;;5054217;28;20119;-77
2022/08/13 07:48:56;;;;;;;25.48;4.13;;;26.20;42.00;25.10;101449.00;;;;5067767;28;20063;-77
2022/08/13 07:51:42;;;;;;;16.75;2.03;;;26.20;41.90;25.20;101441.00;;;;5059358;28;20190;-79
2022/08/13 07:54:28;;;;;;;20.73;2.47;;;26.30;41.90;25.20;101439.00;;;;5071148;28;20047;-79
2022/08/13 07:57:14;;;;;;;13.32;2.40;;;26.30;41.90;25.20;101445.00;;;;5071949;28;20192;-79
2022/08/13 08:00:00;;;;;;;16.20;2.53;;;26.30;41.80;25.20;101447.00;;;;5062697;28;20036;-76
2022/08/13 08:03:01;;;;;;;16.38;2.95;;;26.30;42.00;25.20;101452.00;;;;5083892;28;20673;-77
2022/08/13 08:05:47;;;;;;;15.55;2.42;;;26.30;42.10;25.20;101443.00;;;;5063230;28;20136;-73
2022/08/13 08:08:33;;;;;;;14.30;2.35;;;26.30;42.10;25.20;101449.00;;;;5066300;28;20473;-73
2022/08/13 08:14:27;;;;;;;13.82;1.85;;;26.30;42.20;25.20;101445.00;;;;5067111;28;20032;-73
2022/08/13 08:17:13;;;;;;;9.65;1.77;;;26.30;42.10;25.20;101449.00;;;;5067132;28;20454;-73
2022/08/13 08:19:59;;;;;;;15.27;2.08;;;26.30;42.10;25.20;101445.00;;;;5080092;28;20034;-73
2022/08/13 08:22:45;;;;;;;10.40;3.03;;;26.30;42.10;25.20;101442.00;;;;5074123;28;20083;-72
2022/08/13 08:25:32;;;;;;;6.35;1.27;;;26.30;42.20;25.20;101447.00;;;;5075812;28;20032;-72
2022/08/13 08:28:18;;;;;;;5.45;1.45;;;26.30;42.30;25.20;101443.00;;;;5092260;28;20457;-72
2022/08/13 08:31:06;;;;;;;5.95;1.23;;;26.30;42.20;25.20;101441.00;;;;5071378;28;20036;-73
2022/08/13 08:33:56;;;;;;;7.72;1.92;;;26.30;42.10;25.20;101450.00;;;;5057961;28;20457;-72
2022/08/13 08:36:42;;;;;;;5.55;1.52;;;26.30;42.10;25.20;101439.00;;;;5094003;28;20542;-73
2022/08/13 08:42:36;;;;;;;4.32;1.30;;;26.30;42.10;25.20;101447.00;;;;5069693;28;20074;-72
2022/08/13 08:45:24;;;;;;;8.52;1.63;;;26.30;42.00;25.20;101437.00;;;;5081050;28;20048;-73
2022/08/13 08:48:10;;;;;;;5.50;1.52;;;26.30;42.10;25.20;101444.00;;;;5078004;28;20039;-72
2022/08/13 08:50:56;;;;;;;6.95;1.48;;;26.30;42.00;25.20;101443.00;;;;5064646;28;20047;-73
2022/08/13 08:53:44;;;;;;;6.28;1.23;;;26.30;42.00;25.20;101435.00;;;;5085486;28;20048;-73
2022/08/13 08:56:34;;;;;;;2.85;1.40;;;26.30;42.10;25.20;101436.00;;;;5079123;28;20043;-73
2022/08/13 08:59:24;;;;;;;8.20;1.58;;;26.20;42.00;25.20;101437.00;;;;5079121;28;20093;-73
2022/08/13 09:02:24;;;;;;;1.98;1.20;;;26.20;42.10;25.20;101434.00;;;;5063361;28;20040;-72
2022/08/13 09:05:16;;;;;;;6.95;1.23;;;26.20;42.10;25.20;101428.00;;;;5085123;28;20543;-72
2022/08/13 09:08:06;;;;;;;5.97;1.15;;;26.30;42.10;25.20;101430.00;;;;5090368;28;20109;-73
2022/08/13 09:10:52;;;;;;;3.70;1.23;;;26.30;42.10;25.20;101432.00;;;;5079269;28;20492;-73
2022/08/13 09:13:38;;;;;;;3.55;1.42;;;26.30;42.20;25.20;101428.00;;;;5078087;28;20036;-74
2022/08/13 09:16:24;;;;;;;7.65;2.03;;;26.30;42.10;25.20;101422.00;;;;5089499;28;20094;-73
2022/08/13 09:19:13;;;;;;;5.15;1.20;;;26.30;42.20;25.20;101425.00;;;;5081320;28;20040;-74
2022/08/13 09:21:59;;;;;;;2.17;1.30;;;26.30;42.10;25.20;101419.00;;;;5076424;28;20047;-73
2022/08/13 09:24:46;;;;;;;5.10;1.10;;;26.30;42.00;25.20;101415.00;;;;5101312;28;20039;-74
2022/08/13 09:27:34;;;;;;;3.47;0.90;;;26.30;41.90;25.20;101415.00;;;;5058117;28;20048;-73
2022/08/13 09:30:20;;;;;;;2.95;1.08;;;26.30;41.90;25.20;101407.00;;;;5073452;28;20131;-73
2022/08/13 09:33:06;;;;;;;4.90;1.30;;;26.30;41.90;25.20;101407.00;;;;5089475;28;20047;-74
2022/08/13 09:35:54;;;;;;;5.03;1.08;;;26.30;41.90;25.20;101407.00;;;;5088832;28;20398;-73
2022/08/13 09:38:40;;;;;;;2.65;1.05;;;26.30;41.90;25.20;101416.00;;;;5078788;28;20711;-74
2022/08/13 09:41:37;;;;;;;1.65;0.90;;;26.30;41.90;25.20;101407.00;;;;5076713;28;20071;-73
2022/08/13 09:44:26;;;;;;;2.00;1.17;;;26.30;41.90;25.20;101406.00;;;;5077746;28;20036;-73
2022/08/13 09:47:20;;;;;;;2.35;1.00;;;26.30;41.90;25.20;101398.00;;;;5094593;28;20044;-73
2022/08/13 09:50:08;;;;;;;1.02;0.98;;;26.30;41.90;25.20;101404.00;;;;5089048;28;20055;-74
2022/08/13 09:52:55;;;;;;;2.83;0.90;;;26.30;41.80;25.20;101403.00;;;;5091244;28;20035;-73
2022/08/13 09:55:41;;;;;;;2.17;1.40;;;26.30;41.80;25.20;101399.00;;;;5096364;28;20040;-74
2022/08/13 09:58:27;;;;;;;2.03;1.05;;;26.30;41.80;25.20;101402.00;;;;5078819;28;20274;-73
2022/08/13 10:01:13;;;;;;;1.92;0.90;;;26.30;41.70;25.20;101406.00;;;;5083293;28;20239;-74
2022/08/13 10:03:59;;;;;;;2.00;1.10;;;26.30;41.70;25.20;101390.00;;;;5094453;28;20222;-74
2022/08/13 10:06:46;;;;;;;3.25;1.10;;;26.40;41.80;25.20;101392.00;;;;5088746;28;20048;-72
2022/08/13 10:09:33;;;;;;;1.52;0.90;;;26.40;41.60;25.20;101395.00;;;;5087830;28;20051;-73
2022/08/13 10:12:19;;;;;;;2.08;1.27;;;26.30;41.50;25.30;101388.00;;;;5092766;28;20040;-72
2022/08/13 10:15:08;;;;;;;9.80;1.05;;;26.30;41.40;25.30;101381.00;;;;5087950;28;20043;-72
2022/08/13 10:17:59;;;;;;;3.15;1.10;;;26.30;41.40;25.30;101379.00;;;;5061275;28;20032;-72
2022/08/13 10:20:45;;;;;;;4.40;1.30;;;26.30;41.50;25.20;101386.00;;;;5074527;28;20069;-76
2022/08/13 10:23:31;;;;;;;3.10;1.30;;;26.30;41.40;25.30;101366.00;;;;5093787;28;20170;-72
2022/08/13 10:26:18;;;;;;;1.13;1.08;;;26.30;41.40;25.30;101378.00;;;;5089521;28;20039;-72
2022/08/13 10:29:04;;;;;;;1.75;1.10;;;26.40;41.40;25.30;101365.00;;;;5089916;28;20043;-72
2022/08/13 10:31:50;;;;;;;3.00;1.50;;;26.40;41.50;25.30;101364.00;;;;5088250;28;20047;-72
2022/08/13 10:34:36;;;;;;;2.92;1.27;;;26.40;41.40;25.30;101359.00;;;;5088013;28;20118;-72
2022/08/13 10:37:22;;;;;;;1.60;1.17;;;26.40;41.40;25.30;101359.00;;;;5090205;28;20039;-72
2022/08/13 10:40:09;;;;;;;3.92;1.58;;;26.40;41.40;25.30;101358.00;;;;5088648;28;20493;-72
2022/08/13 10:42:55;;;;;;;4.82;1.00;;;26.40;41.40;25.30;101360.00;;;;5089329;28;20032;-72
2022/08/13 10:45:42;;;;;;;5.60;1.58;;;26.40;41.60;25.30;101356.00;;;;5092383;28;20421;-72
2022/08/13 10:48:28;;;;;;;2.20;1.13;;;26.50;41.50;25.30;101348.00;;;;5088651;28;20052;-72
2022/08/13 10:51:14;;;;;;;2.67;1.10;;;26.50;41.50;25.30;101352.00;;;;5052992;28;20585;-72
2022/08/13 10:54:01;;;;;;;3.15;1.30;;;26.40;41.40;25.30;101344.00;;;;5086600;28;20146;-72
2022/08/13 10:56:47;;;;;;;3.05;1.50;;;26.50;41.40;25.30;101361.00;;;;5085862;28;20032;-72
2022/08/13 10:59:34;;;;;;;3.65;1.83;;;26.40;41.30;25.30;101355.00;;;;5086891;28;20115;-72
2022/08/13 11:02:20;;;;;;;;;;;26.50;42.10;25.30;101345.00;;;;5090475;28;20078;-72
2022/08/13 11:05:10;;;;;;;2.58;1.88;;;26.50;41.40;25.30;101333.00;;;;5082384;28;19916;-72
2022/08/13 11:07:56;;;;;;;2.50;1.17;;;26.50;41.30;25.30;101343.00;;;;5077051;28;20036;-72
2022/08/13 11:10:42;;;;;;;3.22;1.40;;;26.50;41.30;25.30;101348.00;;;;5087089;28;20377;-72
2022/08/13 11:13:28;;;;;;;1.52;1.15;;;26.50;41.30;25.30;101336.00;;;;5085902;28;20040;-72
2022/08/13 11:19:25;;;;;;;2.78;1.40;;;26.60;41.40;25.30;101314.00;;;;5076384;28;20046;-72
2022/08/13 11:22:12;;;;;;;1.45;1.35;;;26.50;41.20;25.30;101322.00;;;;5085320;28;20047;-72
2022/08/13 11:24:59;;;;;;;1.53;1.43;;;26.50;41.10;25.30;101320.00;;;;5084143;28;20495;-72
2022/08/13 11:27:45;;;;;;;1.58;1.40;;;26.50;41.10;25.30;101323.00;;;;5078898;28;20050;-72
2022/08/13 11:30:31;;;;;;;4.80;1.70;;;26.40;41.00;25.30;101327.00;;;;5091060;28;20048;-72
2022/08/13 11:33:19;;;;;;;1.38;1.27;;;26.50;41.00;25.40;101312.00;;;;5088826;28;20076;-71
2022/08/13 11:36:05;;;;;;;;;;;26.50;41.00;25.30;101310.00;;;;5090113;28;20035;-72
2022/08/13 11:38:51;;;;;;;1.83;1.52;;;26.50;41.20;25.40;101310.00;;;;5083387;28;20037;-72
2022/08/13 11:41:37;;;;;;;1.70;1.60;;;26.50;40.90;25.40;101305.00;;;;5084229;28;20098;-72
2022/08/13 11:44:23;;;;;;;2.75;1.40;;;26.60;41.00;25.40;101301.00;;;;5091453;28;20047;-72
2022/08/13 11:47:09;;;;;;;2.10;1.73;;;26.60;40.90;25.40;101304.00;;;;5084184;28;20048;-72
2022/08/13 11:49:55;;;;;;;2.30;1.40;;;26.60;40.90;25.40;101308.00;;;;5088759;28;20043;-72
2022/08/13 11:52:41;;;;;;;2.22;1.60;;;26.60;40.80;25.40;101305.00;;;;5093505;28;20036;-72
2022/08/13 11:55:27;;;;;;;1.90;1.60;;;26.50;40.90;25.40;101308.00;;;;5076520;28;20501;-72
2022/08/13 11:58:14;;;;;;;2.15;1.50;;;26.60;40.90;25.40;101310.00;;;;5088766;28;20119;-72
2022/08/13 12:01:00;;;;;;;1.90;1.80;;;26.50;40.80;25.40;101311.00;;;;5080544;28;20039;-72
2022/08/13 12:03:46;;;;;;;2.33;1.67;;;26.60;40.90;25.40;101298.00;;;;5077258;28;20036;-72
2022/08/13 12:06:32;;;;;;;3.95;1.70;;;26.60;41.00;25.40;101302.00;;;;5075775;28;20052;-72
2022/08/13 12:09:18;;;;;;;1.42;1.30;;;26.60;40.90;25.40;101288.00;;;;5080986;28;20048;-72
2022/08/13 12:12:05;;;;;;;1.92;1.77;;;26.60;41.60;25.40;101291.00;;;;5085120;28;20044;-72
2022/08/13 12:14:51;;;;;;;2.15;1.75;;;26.60;40.90;25.40;101287.00;;;;5088142;28;20052;-72
2022/08/13 12:17:42;;;;;;;2.22;1.58;;;26.60;41.00;25.40;101290.00;;;;5072039;28;20085;-72
2022/08/13 12:20:28;;;;;;;1.60;1.42;;;26.60;40.90;25.40;101281.00;;;;5082276;28;20047;-72
2022/08/13 12:23:14;;;;;;;3.30;1.70;;;26.60;40.90;25.40;101278.00;;;;5086299;28;20035;-72
2022/08/13 12:26:00;;;;;;;2.17;1.60;;;26.60;40.90;25.40;101271.00;;;;5070768;28;20036;-72
2022/08/13 12:28:46;;;;;;;2.60;1.60;;;26.60;40.90;25.40;101278.00;;;;5088363;28;20032;-72
2022/08/13 12:31:32;;;;;;;1.70;1.60;;;26.60;40.90;25.40;101270.00;;;;5089997;28;20036;-72
2022/08/13 12:34:18;;;;;;;1.67;1.20;;;26.60;40.90;25.40;101265.00;;;;5091799;28;20044;-72
2022/08/13 12:37:04;;;;;;;1.85;1.42;;;26.70;41.10;25.40;101249.00;;;;5082972;28;20096;-72